createdAt,value
2023-12-29T00:01:34.286Z,7.70
2023-12-29T00:04:01.838Z,7.70
2023-12-29T00:06:28.420Z,7.68
2023-12-29T00:08:54.967Z,7.69
2023-12-29T00:11:22.181Z,7.68
2023-12-29T00:13:49.398Z,7.66
2023-12-29T00:16:16.775Z,7.70
2023-12-29T00:18:43.654Z,7.67
2023-12-29T00:21:10.421Z,7.69
2023-12-29T00:23:37.025Z,7.67
2023-12-29T00:26:03.576Z,7.66
2023-12-29T00:28:30.072Z,7.52
2023-12-29T00:31:01.534Z,7.66
2023-12-29T00:33:30.702Z,7.65
2023-12-29T00:35:57.671Z,7.68
2023-12-29T00:38:24.255Z,7.64
2023-12-29T00:40:50.784Z,7.68
2023-12-29T00:43:17.643Z,7.67
2023-12-29T00:45:46.006Z,7.66
2023-12-29T00:48:13.135Z,7.67
2023-12-29T00:50:39.907Z,7.66
2023-12-29T00:53:06.610Z,7.67
2023-12-29T00:55:33.181Z,7.64
2023-12-29T00:57:59.959Z,7.68
2023-12-29T01:00:26.751Z,7.66
2023-12-29T01:02:53.371Z,7.69
2023-12-29T01:05:20.028Z,7.67
2023-12-29T01:07:46.611Z,7.66
2023-12-29T01:10:13.306Z,7.68
2023-12-29T01:12:39.882Z,7.69
2023-12-29T01:15:06.927Z,7.68
2023-12-29T01:17:33.503Z,7.68
2023-12-29T01:20:00.306Z,7.66
2023-12-29T01:22:27.209Z,7.66
2023-12-29T01:24:54.159Z,7.69
2023-12-29T01:27:20.721Z,7.67
2023-12-29T01:29:47.372Z,7.67
2023-12-29T01:32:15.195Z,7.68
2023-12-29T01:34:41.906Z,7.58
2023-12-29T01:37:08.617Z,7.65
2023-12-29T01:39:36.242Z,7.65
2023-12-29T01:42:02.996Z,7.68
2023-12-29T01:44:29.600Z,7.68
2023-12-29T01:46:59.877Z,7.68
2023-12-29T01:49:26.926Z,7.64
2023-12-29T01:51:56.917Z,7.68
2023-12-29T01:54:25.477Z,7.68
2023-12-29T01:56:56.499Z,7.69
2023-12-29T01:59:26.328Z,7.65
2023-12-29T02:01:56.898Z,7.69
2023-12-29T02:04:27.200Z,7.68
2023-12-29T02:06:54.643Z,7.69
2023-12-29T02:09:21.594Z,7.66
2023-12-29T02:11:49.251Z,7.69
2023-12-29T02:14:17.921Z,7.68
2023-12-29T02:17:03.076Z,7.70
2023-12-29T02:19:45.815Z,7.70
2023-12-29T02:22:13.558Z,7.67
2023-12-29T02:24:41.158Z,7.69
2023-12-29T02:27:25.726Z,7.69
2023-12-29T02:30:19.993Z,7.69
2023-12-29T02:32:48.163Z,7.68
2023-12-29T02:35:19.723Z,7.70
2023-12-29T02:37:47.195Z,7.68
2023-12-29T02:40:15.471Z,7.66
2023-12-29T02:42:49.682Z,7.66
2023-12-29T02:45:19.301Z,7.69
2023-12-29T02:47:46.340Z,7.68
2023-12-29T02:50:13.464Z,7.71
2023-12-29T02:52:40.032Z,7.69
2023-12-29T02:55:06.997Z,7.69
2023-12-29T02:57:33.701Z,7.70
2023-12-29T03:00:00.397Z,7.68
2023-12-29T03:02:27.036Z,7.71
2023-12-29T03:04:53.569Z,7.59
2023-12-29T03:07:20.203Z,7.69
2023-12-29T03:09:46.829Z,7.69
2023-12-29T03:12:13.451Z,7.67
2023-12-29T03:14:40.075Z,7.68
2023-12-29T03:17:06.617Z,7.70
2023-12-29T03:19:33.463Z,7.71
2023-12-29T03:22:00.108Z,7.70
2023-12-29T03:24:26.626Z,7.62
2023-12-29T03:26:53.171Z,7.71
2023-12-29T03:29:19.716Z,7.70
2023-12-29T03:31:46.447Z,7.70
2023-12-29T03:34:13.056Z,7.72
2023-12-29T03:36:39.772Z,7.60
2023-12-29T03:39:06.368Z,7.69
2023-12-29T03:41:33.028Z,7.61
2023-12-29T03:44:00.679Z,7.70
2023-12-29T03:46:27.280Z,7.69
2023-12-29T03:48:54.124Z,7.70
2023-12-29T03:51:21.850Z,7.73
2023-12-29T03:53:48.458Z,7.71
2023-12-29T03:56:19.460Z,7.64
2023-12-29T03:58:46.821Z,7.72
2023-12-29T04:01:14.642Z,7.73
2023-12-29T04:03:42.390Z,7.70
2023-12-29T04:06:09.257Z,7.71
2023-12-29T04:08:36.113Z,7.73
2023-12-29T04:11:03.575Z,7.72
2023-12-29T04:13:30.335Z,7.63
2023-12-29T04:15:57.039Z,7.73
2023-12-29T04:18:24.781Z,7.73
2023-12-29T04:20:51.394Z,7.70
2023-12-29T04:23:18.070Z,7.70
2023-12-29T04:25:44.617Z,7.70
2023-12-29T04:28:11.192Z,7.72
2023-12-29T04:30:37.846Z,7.70
2023-12-29T04:33:04.890Z,7.75
2023-12-29T04:35:31.698Z,7.70
2023-12-29T04:37:58.325Z,7.75
2023-12-29T04:40:24.950Z,7.74
2023-12-29T04:42:51.569Z,7.72
2023-12-29T04:45:18.380Z,7.71
2023-12-29T04:47:44.843Z,7.74
2023-12-29T04:50:11.505Z,7.72
2023-12-29T04:52:38.044Z,7.72
2023-12-29T04:55:04.974Z,7.65
2023-12-29T04:57:31.532Z,7.74
2023-12-29T04:59:58.053Z,7.76
2023-12-29T05:02:24.634Z,7.75
2023-12-29T05:04:51.315Z,7.74
2023-12-29T05:07:17.931Z,7.75
2023-12-29T05:09:44.611Z,7.75
2023-12-29T05:12:11.718Z,7.75
2023-12-29T05:14:38.253Z,7.77
2023-12-29T05:17:04.800Z,7.74
2023-12-29T05:19:31.497Z,7.73
2023-12-29T05:21:58.003Z,7.76
2023-12-29T05:24:24.560Z,7.74
2023-12-29T05:26:51.082Z,7.76
2023-12-29T05:29:17.691Z,7.77
2023-12-29T05:31:44.346Z,7.73
2023-12-29T05:34:10.958Z,7.75
2023-12-29T05:36:38.187Z,7.77
2023-12-29T05:39:04.929Z,7.74
2023-12-29T05:41:31.755Z,7.77
2023-12-29T05:43:59.144Z,7.77
2023-12-29T05:46:25.956Z,7.76
2023-12-29T05:48:53.757Z,7.77
2023-12-29T05:51:21.345Z,7.74
2023-12-29T05:53:47.954Z,7.76
2023-12-29T05:56:15.292Z,7.76
2023-12-29T05:58:43.675Z,7.78
2023-12-29T06:01:10.863Z,7.75
2023-12-29T06:03:37.732Z,7.75
2023-12-29T06:06:04.313Z,7.78
2023-12-29T06:08:31.164Z,7.77
2023-12-29T06:10:57.757Z,7.78
2023-12-29T06:13:24.499Z,7.76
2023-12-29T06:15:51.170Z,7.77
2023-12-29T06:18:17.993Z,7.78
2023-12-29T06:20:44.692Z,7.75
2023-12-29T06:23:11.764Z,7.77
2023-12-29T06:25:40.742Z,7.78
2023-12-29T06:28:07.992Z,7.76
2023-12-29T06:30:35.269Z,7.76
2023-12-29T06:33:02.325Z,7.78
2023-12-29T06:35:29.111Z,7.79
2023-12-29T06:37:55.941Z,7.79
2023-12-29T06:40:22.679Z,7.79
2023-12-29T06:42:49.283Z,7.80
2023-12-29T06:45:15.955Z,7.75
2023-12-29T06:47:42.604Z,7.77
2023-12-29T06:50:13.639Z,7.78
2023-12-29T06:52:41.161Z,7.80
2023-12-29T06:55:09.364Z,7.76
2023-12-29T06:57:36.140Z,7.79
2023-12-29T07:00:02.908Z,7.79
2023-12-29T07:02:29.480Z,7.80
2023-12-29T07:04:56.187Z,7.78
2023-12-29T07:07:22.920Z,7.78
2023-12-29T07:09:49.569Z,7.79
2023-12-29T07:12:16.861Z,7.77
2023-12-29T07:14:43.756Z,7.77
2023-12-29T07:17:10.585Z,7.77
2023-12-29T07:19:40.158Z,7.78
2023-12-29T07:22:07.326Z,7.78
2023-12-29T07:24:34.209Z,7.78
2023-12-29T07:27:00.751Z,7.79
2023-12-29T07:29:27.538Z,7.78
2023-12-29T07:31:54.238Z,7.79
2023-12-29T07:34:21.716Z,7.79
2023-12-29T07:36:48.410Z,7.77
2023-12-29T07:39:15.226Z,7.78
2023-12-29T07:41:43.013Z,7.77
2023-12-29T07:44:12.850Z,7.78
2023-12-29T07:46:42.677Z,7.77
2023-12-29T07:49:09.575Z,7.79
2023-12-29T07:51:43.874Z,7.73
2023-12-29T07:54:10.771Z,7.79
2023-12-29T07:56:38.671Z,7.78
2023-12-29T07:59:05.891Z,7.77
2023-12-29T08:01:32.762Z,7.74
2023-12-29T08:03:59.537Z,7.76
2023-12-29T08:06:26.762Z,7.78
2023-12-29T08:08:55.218Z,7.78
2023-12-29T08:11:21.889Z,7.74
2023-12-29T08:13:49.832Z,7.76
2023-12-29T08:16:19.233Z,7.75
2023-12-29T08:18:47.525Z,7.77
2023-12-29T08:21:20.928Z,7.78
2023-12-29T08:23:48.367Z,7.77
2023-12-29T08:26:15.518Z,7.75
2023-12-29T08:28:42.114Z,7.75
2023-12-29T08:31:09.373Z,7.78
2023-12-29T08:33:36.157Z,7.76
2023-12-29T08:36:05.902Z,7.66
2023-12-29T08:38:32.910Z,7.72
2023-12-29T08:41:00.530Z,7.76
2023-12-29T08:43:27.625Z,7.76
2023-12-29T08:45:54.565Z,7.74
2023-12-29T08:48:21.384Z,7.78
2023-12-29T08:50:47.983Z,7.73
2023-12-29T08:53:14.628Z,7.76
2023-12-29T08:55:41.178Z,7.67
2023-12-29T08:58:07.786Z,7.74
2023-12-29T09:00:35.216Z,7.76
2023-12-29T09:03:01.979Z,7.76
2023-12-29T09:05:28.543Z,7.75
2023-12-29T09:07:55.583Z,7.76
2023-12-29T09:10:23.744Z,7.76
2023-12-29T09:12:50.882Z,7.78
2023-12-29T09:15:17.805Z,7.75
2023-12-29T09:17:44.409Z,7.73
2023-12-29T09:20:11.959Z,7.76
2023-12-29T09:22:39.186Z,7.76
2023-12-29T09:25:06.378Z,7.75
2023-12-29T09:27:32.956Z,7.74
2023-12-29T09:29:59.632Z,7.72
2023-12-29T09:32:26.203Z,7.68
2023-12-29T09:34:52.904Z,7.76
2023-12-29T09:37:19.469Z,7.77
2023-12-29T09:39:46.286Z,7.66
2023-12-29T09:42:20.552Z,7.76
2023-12-29T09:44:50.610Z,7.73
2023-12-29T09:47:24.359Z,7.75
2023-12-29T09:49:52.416Z,7.73
2023-12-29T09:52:21.748Z,7.74
2023-12-29T09:54:50.933Z,7.74
2023-12-29T09:57:19.247Z,7.74
2023-12-29T09:59:45.878Z,7.77
2023-12-29T10:02:18.533Z,7.75
2023-12-29T10:04:45.545Z,7.76
2023-12-29T10:07:19.655Z,7.75
2023-12-29T10:09:49.036Z,7.73
2023-12-29T10:12:16.403Z,7.75
2023-12-29T10:14:50.228Z,7.76
2023-12-29T10:17:30.629Z,7.75
2023-12-29T10:20:11.918Z,7.77
2023-12-29T10:22:55.677Z,7.78
2023-12-29T10:25:24.308Z,7.78
2023-12-29T10:27:51.193Z,7.73
2023-12-29T10:30:25.062Z,7.78
2023-12-29T10:32:55.746Z,7.71
2023-12-29T10:35:23.797Z,7.76
2023-12-29T10:37:51.333Z,7.75
2023-12-29T10:40:19.897Z,7.74
2023-12-29T10:42:54.690Z,7.78
2023-12-29T10:45:22.199Z,7.78
2023-12-29T10:47:49.671Z,7.77
2023-12-29T10:50:16.403Z,7.78
2023-12-29T10:52:43.394Z,7.80
2023-12-29T10:55:14.588Z,7.79
2023-12-29T10:57:41.646Z,7.79
2023-12-29T11:00:09.414Z,7.79
2023-12-29T11:02:36.558Z,7.79
2023-12-29T11:05:07.742Z,7.81
2023-12-29T11:07:39.682Z,7.82
2023-12-29T11:10:10.652Z,7.77
2023-12-29T11:12:38.947Z,7.82
2023-12-29T11:15:07.497Z,7.80
2023-12-29T11:17:36.578Z,7.83
2023-12-29T11:20:05.796Z,7.81
2023-12-29T11:22:33.445Z,7.82
2023-12-29T11:25:01.062Z,7.85
2023-12-29T11:27:32.025Z,7.86
2023-12-29T11:30:00.290Z,7.86
2023-12-29T11:32:56.236Z,7.87
2023-12-29T11:35:41.859Z,7.87
2023-12-29T11:38:27.739Z,7.89
2023-12-29T11:41:10.102Z,7.90
2023-12-29T11:43:37.192Z,7.89
2023-12-29T11:46:04.198Z,7.91
2023-12-29T11:48:59.551Z,7.93
2023-12-29T11:51:50.422Z,7.93
2023-12-29T11:54:27.951Z,7.92
2023-12-29T11:56:55.437Z,7.93
2023-12-29T11:59:24.400Z,7.94
2023-12-29T12:01:56.260Z,7.96
2023-12-29T12:04:43.160Z,7.95
2023-12-29T12:07:25.400Z,7.98
2023-12-29T12:09:54.121Z,7.94
2023-12-29T12:12:44.218Z,8.00
2023-12-29T12:15:33.783Z,8.01
2023-12-29T12:18:02.175Z,8.03
2023-12-29T12:20:29.464Z,8.05
2023-12-29T12:23:01.005Z,8.05
2023-12-29T12:25:31.841Z,8.09
2023-12-29T12:27:59.992Z,8.08
2023-12-29T12:30:26.574Z,8.09
2023-12-29T12:33:01.187Z,8.13
2023-12-29T12:35:28.390Z,8.09
2023-12-29T12:38:25.341Z,8.14
2023-12-29T12:40:51.946Z,8.18
2023-12-29T12:43:18.841Z,8.18
2023-12-29T12:45:53.378Z,8.15
2023-12-29T12:48:31.220Z,8.19
2023-12-29T12:51:00.247Z,8.18
2023-12-29T12:53:27.286Z,8.14
2023-12-29T12:55:55.275Z,8.12
2023-12-29T12:58:22.420Z,8.15
2023-12-29T13:00:52.795Z,8.19
2023-12-29T13:03:21.411Z,8.22
2023-12-29T13:05:48.101Z,8.23
2023-12-29T13:08:18.959Z,8.17
2023-12-29T13:10:50.832Z,8.13
2023-12-29T13:13:19.706Z,8.27
2023-12-29T13:15:55.575Z,8.25
2023-12-29T13:18:35.029Z,8.27
2023-12-29T13:21:05.373Z,8.28
2023-12-29T13:23:32.793Z,8.35
2023-12-29T13:26:03.573Z,8.36
2023-12-29T13:28:31.653Z,8.29
2023-12-29T13:30:59.159Z,8.43
2023-12-29T13:33:46.342Z,8.35
2023-12-29T13:36:22.462Z,8.53
2023-12-29T13:38:58.073Z,8.48
2023-12-29T13:41:26.717Z,8.55
2023-12-29T13:43:55.459Z,8.49
2023-12-29T13:46:22.276Z,8.60
2023-12-29T13:48:52.412Z,8.61
2023-12-29T13:51:24.453Z,8.52
2023-12-29T13:53:58.906Z,8.60
2023-12-29T13:56:25.419Z,8.64
2023-12-29T13:58:55.301Z,8.73
2023-12-29T14:01:22.081Z,8.73
2023-12-29T14:03:56.269Z,8.74
2023-12-29T14:06:32.583Z,8.71
2023-12-29T14:08:59.328Z,8.75
2023-12-29T14:11:25.727Z,8.70
2023-12-29T14:13:52.409Z,8.73
2023-12-29T14:16:21.793Z,8.71
2023-12-29T14:18:58.093Z,8.70
2023-12-29T14:21:32.677Z,8.76
2023-12-29T14:24:18.839Z,8.73
2023-12-29T14:27:00.954Z,8.67
2023-12-29T14:29:27.989Z,8.70
2023-12-29T14:31:57.165Z,8.70
2023-12-29T14:34:23.944Z,8.71
2023-12-29T14:36:50.735Z,8.72
2023-12-29T14:39:17.384Z,8.74
2023-12-29T14:41:44.140Z,8.72
2023-12-29T14:44:10.629Z,8.75
2023-12-29T14:46:38.285Z,8.75
2023-12-29T14:49:05.412Z,8.75
2023-12-29T14:51:32.060Z,8.76
2023-12-29T14:53:58.953Z,8.76
2023-12-29T14:56:25.928Z,8.78
2023-12-29T14:58:52.569Z,8.77
2023-12-29T15:01:19.461Z,8.77
2023-12-29T15:03:46.373Z,8.71
2023-12-29T15:06:13.358Z,8.79
2023-12-29T15:08:39.931Z,8.82
2023-12-29T15:11:08.240Z,8.80
2023-12-29T15:13:35.409Z,8.73
2023-12-29T15:16:05.069Z,8.86
2023-12-29T15:18:32.307Z,8.84
2023-12-29T15:20:59.827Z,8.83
2023-12-29T15:23:28.820Z,8.81
2023-12-29T15:25:55.679Z,8.84
2023-12-29T15:28:23.261Z,8.86
2023-12-29T15:30:51.284Z,8.84
2023-12-29T15:33:18.435Z,8.86
2023-12-29T15:35:45.056Z,8.87
2023-12-29T15:38:11.650Z,8.85
2023-12-29T15:40:38.281Z,8.89
2023-12-29T15:43:05.168Z,8.86
2023-12-29T15:45:32.390Z,8.88
2023-12-29T15:47:59.846Z,8.71
2023-12-29T15:50:26.672Z,8.87
2023-12-29T15:52:53.826Z,8.90
2023-12-29T15:55:20.616Z,8.90
2023-12-29T15:57:47.226Z,8.95
2023-12-29T16:00:14.943Z,8.90
2023-12-29T16:02:41.932Z,8.91
2023-12-29T16:05:08.787Z,8.91
2023-12-29T16:07:36.014Z,8.88
2023-12-29T16:10:04.678Z,8.89
2023-12-29T16:12:31.553Z,8.91
2023-12-29T16:14:59.342Z,8.95
2023-12-29T16:17:25.986Z,8.94
2023-12-29T16:19:52.676Z,8.93
2023-12-29T16:22:19.858Z,8.93
2023-12-29T16:24:48.793Z,8.94
2023-12-29T16:27:15.712Z,8.93
2023-12-29T16:29:43.368Z,8.94
2023-12-29T16:32:09.949Z,8.95
2023-12-29T16:34:36.597Z,8.97
2023-12-29T16:37:03.176Z,9.00
2023-12-29T16:39:29.696Z,8.93
2023-12-29T16:41:56.385Z,8.93
2023-12-29T16:44:22.868Z,8.93
2023-12-29T16:46:49.470Z,8.93
2023-12-29T16:49:16.314Z,8.95
2023-12-29T16:51:44.827Z,8.95
2023-12-29T16:54:12.207Z,8.93
2023-12-29T16:56:39.059Z,8.88
2023-12-29T16:59:07.086Z,8.88
2023-12-29T17:01:34.080Z,8.91
2023-12-29T17:04:00.988Z,8.92
2023-12-29T17:06:28.638Z,8.97
2023-12-29T17:08:55.347Z,8.97
2023-12-29T17:11:21.987Z,8.97
2023-12-29T17:13:48.538Z,8.91
2023-12-29T17:16:17.031Z,8.91
2023-12-29T17:18:44.396Z,8.96
2023-12-29T17:21:11.844Z,8.94
2023-12-29T17:23:38.634Z,8.93
2023-12-29T17:26:10.975Z,8.95
2023-12-29T17:28:37.683Z,8.94
2023-12-29T17:31:05.239Z,8.96
2023-12-29T17:33:31.980Z,8.93
2023-12-29T17:35:58.525Z,8.93
2023-12-29T17:38:25.061Z,8.94
2023-12-29T17:40:51.634Z,8.93
2023-12-29T17:43:18.425Z,8.92
2023-12-29T17:45:45.004Z,8.91
2023-12-29T17:48:11.648Z,8.83
2023-12-29T17:50:38.077Z,8.96
2023-12-29T17:53:04.879Z,8.93
2023-12-29T17:55:31.547Z,8.90
2023-12-29T17:57:58.026Z,8.91
2023-12-29T18:00:27.674Z,8.90
2023-12-29T18:02:54.299Z,8.89
2023-12-29T18:05:22.087Z,8.90
2023-12-29T18:07:48.961Z,8.90
2023-12-29T18:10:15.641Z,8.90
2023-12-29T18:12:42.387Z,8.91
2023-12-29T18:15:12.374Z,8.89
2023-12-29T18:17:39.455Z,8.85
2023-12-29T18:20:06.864Z,8.87
2023-12-29T18:22:33.503Z,8.80
2023-12-29T18:25:00.820Z,8.87
2023-12-29T18:27:33.666Z,8.84
2023-12-29T18:30:00.605Z,8.84
2023-12-29T18:32:27.298Z,8.83
2023-12-29T18:34:54.080Z,8.87
2023-12-29T18:37:21.646Z,8.88
2023-12-29T18:39:49.268Z,8.87
2023-12-29T18:42:16.609Z,8.88
2023-12-29T18:44:43.254Z,8.84
2023-12-29T18:47:10.673Z,8.79
2023-12-29T18:49:37.900Z,8.83
2023-12-29T18:52:05.053Z,8.84
2023-12-29T18:54:34.836Z,8.85
2023-12-29T18:57:02.697Z,8.85
2023-12-29T18:59:29.728Z,8.81
2023-12-29T19:01:58.587Z,8.84
2023-12-29T19:04:26.273Z,8.85
2023-12-29T19:06:52.993Z,8.81
2023-12-29T19:09:19.622Z,8.80
2023-12-29T19:11:46.263Z,8.80
2023-12-29T19:14:12.797Z,8.82
2023-12-29T19:16:39.567Z,8.82
2023-12-29T19:19:06.056Z,8.81
2023-12-29T19:21:34.633Z,8.79
2023-12-29T19:24:02.332Z,8.79
2023-12-29T19:26:29.962Z,8.82
2023-12-29T19:28:57.044Z,8.72
2023-12-29T19:31:26.128Z,8.79
2023-12-29T19:33:54.529Z,8.80
2023-12-29T19:36:22.148Z,8.81
2023-12-29T19:38:52.656Z,8.80
2023-12-29T19:41:22.847Z,8.82
2023-12-29T19:43:49.978Z,8.76
2023-12-29T19:46:18.085Z,8.78
2023-12-29T19:48:46.319Z,8.70
2023-12-29T19:51:13.077Z,8.82
2023-12-29T19:53:39.676Z,8.81
2023-12-29T19:56:06.491Z,8.80
2023-12-29T19:58:33.483Z,8.79
2023-12-29T20:01:02.590Z,8.77
2023-12-29T20:03:32.514Z,8.72
2023-12-29T20:05:59.724Z,8.75
2023-12-29T20:08:26.533Z,8.76
2023-12-29T20:10:54.928Z,8.76
2023-12-29T20:13:21.571Z,8.73
2023-12-29T20:15:48.121Z,8.75
2023-12-29T20:18:15.122Z,8.73
2023-12-29T20:20:41.824Z,8.73
2023-12-29T20:23:09.677Z,8.76
2023-12-29T20:25:36.857Z,8.71
2023-12-29T20:28:03.872Z,8.75
2023-12-29T20:30:30.693Z,8.76
2023-12-29T20:32:58.025Z,8.73
2023-12-29T20:35:24.946Z,8.73
2023-12-29T20:37:51.471Z,8.76
2023-12-29T20:40:18.609Z,8.76
2023-12-29T20:42:47.071Z,8.72
2023-12-29T20:45:13.805Z,8.64
2023-12-29T20:47:40.373Z,8.76
2023-12-29T20:50:07.783Z,8.71
2023-12-29T20:52:34.592Z,8.70
2023-12-29T20:55:01.698Z,8.63
2023-12-29T20:57:28.345Z,8.70
2023-12-29T20:59:55.053Z,8.70
2023-12-29T21:02:21.481Z,8.72
2023-12-29T21:04:48.128Z,8.60
2023-12-29T21:07:14.747Z,8.70
2023-12-29T21:09:41.284Z,8.69
2023-12-29T21:12:08.589Z,8.68
2023-12-29T21:14:35.239Z,8.68
2023-12-29T21:17:03.017Z,8.68
2023-12-29T21:19:30.267Z,8.69
2023-12-29T21:21:56.978Z,8.68
2023-12-29T21:24:23.517Z,8.64
2023-12-29T21:26:50.071Z,8.66
2023-12-29T21:29:16.715Z,8.62
2023-12-29T21:31:43.465Z,8.64
2023-12-29T21:34:10.373Z,8.66
2023-12-29T21:36:37.209Z,8.65
2023-12-29T21:39:05.263Z,8.63
2023-12-29T21:41:36.414Z,8.67
2023-12-29T21:44:04.609Z,8.65
2023-12-29T21:46:31.522Z,8.57
2023-12-29T21:48:58.240Z,8.55
2023-12-29T21:51:28.004Z,8.66
2023-12-29T21:53:54.570Z,8.67
2023-12-29T21:56:21.104Z,8.58
2023-12-29T21:58:51.936Z,8.64
2023-12-29T22:01:39.107Z,8.63
2023-12-29T22:04:08.793Z,8.67
2023-12-29T22:06:36.800Z,8.65
2023-12-29T22:09:03.649Z,8.66
2023-12-29T22:11:30.548Z,8.62
2023-12-29T22:13:57.240Z,8.66
2023-12-29T22:16:24.884Z,8.66
2023-12-29T22:18:51.727Z,8.65
2023-12-29T22:21:19.940Z,8.62
2023-12-29T22:23:47.437Z,8.66
2023-12-29T22:26:15.352Z,8.65
2023-12-29T22:28:43.376Z,8.64
2023-12-29T22:31:15.144Z,8.62
2023-12-29T22:33:43.523Z,8.64
2023-12-29T22:36:11.447Z,8.61
2023-12-29T22:38:38.321Z,8.65
2023-12-29T22:41:12.492Z,8.64
2023-12-29T22:43:39.347Z,8.61
2023-12-29T22:46:06.506Z,8.64
2023-12-29T22:48:33.201Z,8.59
2023-12-29T22:50:59.969Z,8.65
2023-12-29T22:53:27.305Z,8.62
2023-12-29T22:55:55.113Z,8.57
2023-12-29T22:58:23.227Z,8.54
2023-12-29T23:00:50.915Z,8.56
2023-12-29T23:03:18.059Z,8.59
2023-12-29T23:05:45.377Z,8.59
2023-12-29T23:08:12.399Z,8.60
2023-12-29T23:10:38.970Z,8.62
2023-12-29T23:13:05.946Z,8.62
2023-12-29T23:15:32.943Z,8.50
2023-12-29T23:18:00.380Z,8.60
2023-12-29T23:20:27.082Z,8.60
2023-12-29T23:22:53.655Z,8.57
2023-12-29T23:25:20.274Z,8.60
2023-12-29T23:27:46.858Z,8.62
2023-12-29T23:30:15.050Z,8.60
2023-12-29T23:32:41.688Z,8.62
2023-12-29T23:35:14.422Z,8.62
2023-12-29T23:37:47.048Z,8.60
2023-12-29T23:40:13.757Z,8.60
2023-12-29T23:42:40.382Z,8.60
2023-12-29T23:45:07.933Z,8.57
2023-12-29T23:47:34.736Z,8.57
2023-12-29T23:50:01.366Z,8.57
2023-12-29T23:52:28.341Z,8.61
2023-12-29T23:54:54.919Z,8.54
2023-12-29T23:57:21.470Z,8.56
2023-12-29T23:59:48.116Z,8.56
